createdAt,value
2017-12-12T00:01:01.855Z,84.20
2017-12-12T00:03:29.362Z,84.30
2017-12-12T00:05:56.845Z,83.60
2017-12-12T00:08:24.354Z,83.50
2017-12-12T00:10:51.850Z,83.80
2017-12-12T00:13:19.358Z,83.80
2017-12-12T00:15:46.843Z,83.40
2017-12-12T00:18:15.115Z,82.70
2017-12-12T00:20:43.366Z,83.20
2017-12-12T00:23:10.879Z,83.10
2017-12-12T00:25:38.366Z,82.70
2017-12-12T00:28:05.870Z,82.40
2017-12-12T00:30:34.123Z,81.90
2017-12-12T00:33:01.638Z,81.90
2017-12-12T00:35:29.126Z,82.60
2017-12-12T00:37:56.630Z,82.50
2017-12-12T00:40:24.118Z,82.60
2017-12-12T00:42:51.626Z,83.90
2017-12-12T00:45:19.878Z,83.90
2017-12-12T00:47:47.385Z,83.10
2017-12-12T00:50:14.871Z,82.80
2017-12-12T00:52:42.379Z,84.00
2017-12-12T00:55:10.629Z,84.90
2017-12-12T00:57:38.137Z,84.80
2017-12-12T01:00:05.626Z,85.40
2017-12-12T01:02:33.130Z,86.10
2017-12-12T01:05:00.629Z,85.70
2017-12-12T01:07:28.130Z,85.40
2017-12-12T01:09:55.613Z,84.20
2017-12-12T01:12:23.886Z,84.20
2017-12-12T01:14:52.141Z,83.50
2017-12-12T01:17:19.654Z,83.50
2017-12-12T01:19:48.023Z,84.30
2017-12-12T01:22:15.535Z,83.70
2017-12-12T01:24:43.018Z,83.80
2017-12-12T01:27:11.298Z,84.50
2017-12-12T01:29:39.551Z,84.50
2017-12-12T01:32:07.059Z,84.50
2017-12-12T01:34:34.542Z,83.20
2017-12-12T01:37:02.070Z,83.10
2017-12-12T01:39:29.557Z,82.50
2017-12-12T01:41:57.067Z,82.40
2017-12-12T01:44:24.570Z,83.90
2017-12-12T01:46:52.084Z,83.40
2017-12-12T01:49:19.578Z,80.90
2017-12-12T01:51:47.093Z,80.20
2017-12-12T01:54:14.590Z,80.50
2017-12-12T01:56:42.099Z,80.10
2017-12-12T01:59:09.590Z,79.70
2017-12-12T02:01:37.108Z,79.40
2017-12-12T02:04:04.626Z,76.80
2017-12-12T02:06:32.140Z,76.30
2017-12-12T02:09:00.390Z,75.20
2017-12-12T02:11:27.899Z,75.20
2017-12-12T02:13:55.387Z,75.00
2017-12-12T02:16:22.895Z,74.20
2017-12-12T02:18:51.147Z,72.80
2017-12-12T02:21:18.658Z,72.80
2017-12-12T02:23:46.147Z,73.10
2017-12-12T02:26:13.658Z,71.70
2017-12-12T02:28:41.142Z,70.90
2017-12-12T02:31:08.683Z,70.60
2017-12-12T02:33:36.166Z,70.90
2017-12-12T02:36:03.678Z,71.00
2017-12-12T02:38:31.929Z,70.20
2017-12-12T02:40:59.411Z,71.00
2017-12-12T02:43:27.686Z,70.50
2017-12-12T02:45:55.943Z,69.50
2017-12-12T02:48:23.454Z,69.50
2017-12-12T02:50:50.950Z,69.80
2017-12-12T02:53:18.459Z,68.90
2017-12-12T02:55:45.950Z,69.60
2017-12-12T02:58:13.463Z,69.70
2017-12-12T03:00:41.714Z,68.30
2017-12-12T03:03:09.226Z,68.30
2017-12-12T03:05:36.715Z,68.40
2017-12-12T03:08:04.223Z,69.50
2017-12-12T03:10:31.723Z,69.50
2017-12-12T03:12:59.239Z,69.70
2017-12-12T03:15:26.734Z,68.90
2017-12-12T03:17:54.242Z,68.80
2017-12-12T03:20:22.494Z,69.20
2017-12-12T03:22:50.002Z,69.20
2017-12-12T03:25:17.486Z,69.10
2017-12-12T03:27:44.995Z,69.30
2017-12-12T03:30:13.253Z,68.90
2017-12-12T03:32:41.534Z,69.30
2017-12-12T03:35:09.795Z,69.30
2017-12-12T03:37:37.310Z,69.30
2017-12-12T03:40:04.796Z,68.10
2017-12-12T03:42:32.314Z,67.90
2017-12-12T03:44:59.806Z,67.70
2017-12-12T03:47:27.316Z,68.10
2017-12-12T03:49:55.566Z,69.30
2017-12-12T03:52:23.078Z,69.30
2017-12-12T03:54:50.562Z,69.70
2017-12-12T03:57:18.074Z,69.70
2017-12-12T03:59:45.562Z,70.60
2017-12-12T04:02:13.075Z,70.00
2017-12-12T04:04:41.327Z,70.60
2017-12-12T04:07:08.840Z,70.60
2017-12-12T04:09:36.330Z,70.60
2017-12-12T04:12:03.843Z,70.30
2017-12-12T04:14:31.330Z,70.50
2017-12-12T04:16:58.834Z,70.80
2017-12-12T04:19:27.091Z,71.40
2017-12-12T04:21:54.602Z,71.40
2017-12-12T04:24:22.090Z,72.00
2017-12-12T04:26:49.598Z,72.60
2017-12-12T04:29:17.850Z,73.90
2017-12-12T04:31:45.358Z,73.90
2017-12-12T04:34:12.903Z,74.20
2017-12-12T04:36:40.374Z,74.30
2017-12-12T04:39:07.858Z,74.90
2017-12-12T04:41:35.366Z,74.30
2017-12-12T04:44:02.850Z,74.40
2017-12-12T04:46:30.362Z,74.60
2017-12-12T04:48:57.846Z,73.70
2017-12-12T04:51:25.353Z,73.10
2017-12-12T04:53:52.839Z,73.00
2017-12-12T04:56:21.118Z,72.70
2017-12-12T04:58:49.371Z,73.10
2017-12-12T05:01:16.874Z,73.10
2017-12-12T05:03:44.374Z,73.40
2017-12-12T05:06:11.878Z,73.70
2017-12-12T05:08:40.130Z,73.20
2017-12-12T05:11:07.637Z,73.10
2017-12-12T05:13:35.137Z,72.70
2017-12-12T05:16:02.646Z,72.80
2017-12-12T05:18:30.138Z,72.60
2017-12-12T05:20:57.650Z,72.10
2017-12-12T05:23:25.145Z,72.20
2017-12-12T05:25:52.654Z,72.50
2017-12-12T05:28:20.923Z,72.50
2017-12-12T05:30:49.202Z,72.70
2017-12-12T05:33:17.459Z,72.90
2017-12-12T05:35:44.971Z,72.90
2017-12-12T05:38:12.462Z,73.20
2017-12-12T05:40:39.970Z,73.20
2017-12-12T05:43:08.218Z,73.60
2017-12-12T05:45:35.726Z,73.60
2017-12-12T05:48:03.212Z,73.60
2017-12-12T05:50:30.718Z,74.20
2017-12-12T05:52:58.970Z,73.90
2017-12-12T05:55:26.483Z,73.90
2017-12-12T05:57:53.971Z,74.40
2017-12-12T06:00:21.499Z,74.40
2017-12-12T06:02:48.986Z,74.20
2017-12-12T06:05:16.495Z,74.60
2017-12-12T06:07:43.984Z,74.40
2017-12-12T06:10:11.497Z,74.90
2017-12-12T06:12:39.751Z,75.10
2017-12-12T06:15:07.258Z,75.10
2017-12-12T06:17:34.742Z,74.40
2017-12-12T06:20:02.272Z,74.80
2017-12-12T06:22:29.759Z,74.80
2017-12-12T06:24:57.272Z,74.30
2017-12-12T06:27:24.762Z,74.00
2017-12-12T06:29:52.265Z,74.40
2017-12-12T06:32:19.757Z,74.30
2017-12-12T06:34:47.273Z,74.10
2017-12-12T06:37:14.767Z,74.40
2017-12-12T06:39:42.276Z,74.20
2017-12-12T06:42:09.775Z,74.20
2017-12-12T06:44:38.046Z,74.30
2017-12-12T06:47:06.293Z,73.50
2017-12-12T06:49:33.805Z,73.50
2017-12-12T06:52:01.299Z,73.50
2017-12-12T06:54:28.809Z,73.40
2017-12-12T06:56:56.301Z,73.90
2017-12-12T06:59:23.806Z,73.40
2017-12-12T07:01:52.059Z,73.70
2017-12-12T07:04:19.578Z,73.60
2017-12-12T07:06:47.606Z,74.10
2017-12-12T07:09:15.241Z,74.50
2017-12-12T07:11:42.756Z,74.30
2017-12-12T07:14:10.286Z,74.60
2017-12-12T07:16:38.015Z,73.90
2017-12-12T07:19:05.800Z,75.00
2017-12-12T07:21:33.290Z,75.10
2017-12-12T07:24:01.577Z,73.50
2017-12-12T07:26:29.075Z,73.40
2017-12-12T07:28:56.596Z,74.20
2017-12-12T07:31:24.087Z,73.20
2017-12-12T07:33:51.588Z,73.70
2017-12-12T07:36:19.107Z,73.70
2017-12-12T07:38:46.603Z,73.50
2017-12-12T07:41:14.115Z,73.40
2017-12-12T07:43:41.611Z,73.50
2017-12-12T07:46:09.123Z,74.00
2017-12-12T07:48:36.615Z,74.20
2017-12-12T07:51:04.127Z,74.20
2017-12-12T07:53:31.614Z,74.20
2017-12-12T07:55:59.099Z,74.50
2017-12-12T07:58:26.606Z,74.10
2017-12-12T08:00:54.090Z,74.40
2017-12-12T08:03:21.599Z,74.20
2017-12-12T08:05:49.855Z,74.30
2017-12-12T08:08:17.372Z,74.20
2017-12-12T08:10:44.864Z,73.90
2017-12-12T08:13:12.387Z,73.90
2017-12-12T08:15:39.879Z,73.20
2017-12-12T08:18:07.389Z,73.20
2017-12-12T08:20:34.906Z,72.90
2017-12-12T08:23:02.399Z,72.60
2017-12-12T08:25:29.919Z,70.80
2017-12-12T08:27:57.417Z,70.90
2017-12-12T08:30:24.935Z,71.00
2017-12-12T08:32:52.431Z,70.60
2017-12-12T08:35:19.957Z,70.40
2017-12-12T08:37:47.456Z,70.90
2017-12-12T08:40:14.986Z,71.20
2017-12-12T08:42:43.262Z,70.80
2017-12-12T08:45:11.527Z,71.20
2017-12-12T08:47:39.038Z,71.20
2017-12-12T08:50:06.532Z,70.40
2017-12-12T08:52:34.048Z,70.80
2017-12-12T08:55:01.551Z,70.10
2017-12-12T08:57:29.074Z,69.80
2017-12-12T08:59:56.849Z,69.60
2017-12-12T09:02:24.375Z,69.90
2017-12-12T09:04:51.887Z,69.80
2017-12-12T09:07:19.414Z,69.20
2017-12-12T09:09:46.911Z,68.90
2017-12-12T09:12:14.431Z,68.30
2017-12-12T09:14:41.991Z,67.50
2017-12-12T09:17:09.487Z,67.30
2017-12-12T09:19:37.003Z,67.20
2017-12-12T09:22:04.498Z,66.50
2017-12-12T09:24:32.015Z,66.20
2017-12-12T09:26:59.511Z,65.40
2017-12-12T09:29:27.023Z,66.10
2017-12-12T09:31:54.516Z,65.30
2017-12-12T09:34:22.036Z,64.30
2017-12-12T09:36:49.551Z,64.00
2017-12-12T09:39:17.038Z,63.70
2017-12-12T09:41:44.558Z,63.40
2017-12-12T09:44:12.048Z,63.00
2017-12-12T09:46:39.566Z,62.70
2017-12-12T09:49:07.075Z,62.10
2017-12-12T09:51:34.586Z,61.70
2017-12-12T09:54:02.086Z,61.20
2017-12-12T09:56:30.378Z,60.40
2017-12-12T09:58:57.884Z,60.40
2017-12-12T10:01:25.402Z,61.20
2017-12-12T10:03:52.886Z,61.30
2017-12-12T10:06:20.378Z,63.50
2017-12-12T10:08:47.886Z,61.50
2017-12-12T10:11:15.712Z,61.90
2017-12-12T10:13:44.802Z,60.20
2017-12-12T10:16:13.076Z,60.10
2017-12-12T10:18:41.537Z,60.00
2017-12-12T10:21:09.041Z,60.70
2017-12-12T10:23:36.572Z,61.40
2017-12-12T10:26:04.067Z,61.60
2017-12-12T10:28:31.583Z,61.20
2017-12-12T10:30:59.081Z,61.60
2017-12-12T10:33:26.619Z,61.60
2017-12-12T10:35:54.895Z,61.20
2017-12-12T10:38:22.414Z,61.30
2017-12-12T10:40:49.932Z,60.60
2017-12-12T10:43:17.443Z,60.90
2017-12-12T10:45:44.969Z,60.80
2017-12-12T10:48:12.470Z,60.90
2017-12-12T10:50:39.990Z,60.80
2017-12-12T10:53:07.495Z,61.70
2017-12-12T10:55:35.788Z,62.10
2017-12-12T10:58:04.052Z,61.50
2017-12-12T11:00:31.580Z,61.50
2017-12-12T11:02:59.079Z,61.80
2017-12-12T11:05:27.352Z,60.90
2017-12-12T11:07:54.881Z,60.90
2017-12-12T11:10:22.387Z,61.10
2017-12-12T11:12:49.911Z,61.60
2017-12-12T11:15:17.419Z,62.00
2017-12-12T11:17:44.939Z,61.60
2017-12-12T11:20:13.195Z,61.50
2017-12-12T11:22:40.710Z,61.50
2017-12-12T11:25:08.204Z,61.40
2017-12-12T11:27:35.694Z,61.20
2017-12-12T11:30:03.975Z,60.70
2017-12-12T11:32:32.236Z,60.40
2017-12-12T11:34:59.746Z,60.30
2017-12-12T11:37:36.787Z,60.60
2017-12-12T11:40:05.063Z,59.10
2017-12-12T11:42:32.558Z,59.10
2017-12-12T11:45:00.075Z,58.80
2017-12-12T11:47:27.565Z,58.60
2017-12-12T11:49:55.055Z,58.10
2017-12-12T11:52:22.568Z,58.30
2017-12-12T11:54:50.084Z,58.30
2017-12-12T11:57:17.594Z,58.20
2017-12-12T11:59:45.083Z,58.80
2017-12-12T12:02:12.590Z,59.40
2017-12-12T12:04:40.095Z,58.30
2017-12-12T12:07:07.648Z,58.50
2017-12-12T12:09:35.142Z,57.80
2017-12-12T12:12:02.659Z,57.80
2017-12-12T12:14:30.159Z,58.30
2017-12-12T12:16:57.695Z,58.40
2017-12-12T12:19:25.191Z,58.30
2017-12-12T12:21:52.681Z,57.80
2017-12-12T12:24:20.195Z,57.40
2017-12-12T12:26:47.686Z,58.00
2017-12-12T12:29:15.204Z,57.60
2017-12-12T12:31:42.699Z,57.30
2017-12-12T12:34:10.215Z,56.70
2017-12-12T12:36:38.558Z,55.80
2017-12-12T12:39:06.839Z,55.50
2017-12-12T12:41:34.331Z,55.50
2017-12-12T12:44:01.855Z,55.80
2017-12-12T12:46:29.359Z,55.90
2017-12-12T12:48:56.851Z,56.60
2017-12-12T12:51:24.387Z,56.80
2017-12-12T12:53:52.647Z,56.30
2017-12-12T12:56:20.156Z,56.30
2017-12-12T12:58:47.664Z,56.90
2017-12-12T13:01:15.186Z,57.10
2017-12-12T13:03:42.679Z,57.40
2017-12-12T13:06:10.199Z,57.40
2017-12-12T13:08:37.707Z,57.90
2017-12-12T13:11:05.233Z,58.20
2017-12-12T13:13:32.743Z,58.00
2017-12-12T13:16:01.012Z,57.90
2017-12-12T13:18:28.552Z,57.90
2017-12-12T13:20:56.057Z,58.00
2017-12-12T13:23:23.585Z,57.80
2017-12-12T13:25:51.088Z,58.10
2017-12-12T13:28:18.607Z,58.30
2017-12-12T13:30:46.872Z,58.70
2017-12-12T13:33:15.164Z,59.20
2017-12-12T13:35:42.654Z,59.20
2017-12-12T13:38:10.166Z,59.40
2017-12-12T13:40:37.660Z,59.30
2017-12-12T13:43:05.174Z,59.70
2017-12-12T13:45:32.680Z,59.80
2017-12-12T13:48:00.175Z,60.10
2017-12-12T13:50:27.678Z,60.80
2017-12-12T13:52:55.168Z,61.10
2017-12-12T13:55:22.694Z,61.30
2017-12-12T13:57:50.228Z,61.40
2017-12-12T14:00:17.748Z,61.00
2017-12-12T14:02:45.249Z,60.80
2017-12-12T14:05:13.543Z,59.90
2017-12-12T14:07:41.039Z,60.50
2017-12-12T14:10:08.566Z,60.90
2017-12-12T14:12:36.066Z,61.20
2017-12-12T14:15:03.564Z,61.20
2017-12-12T14:17:31.863Z,62.10
2017-12-12T14:19:59.371Z,62.10
2017-12-12T14:22:26.887Z,62.60
2017-12-12T14:24:54.395Z,63.20
2017-12-12T14:27:21.906Z,63.60
2017-12-12T14:29:49.399Z,64.20
2017-12-12T14:32:17.703Z,65.20
2017-12-12T14:34:45.975Z,64.70
2017-12-12T14:37:13.490Z,64.60
2017-12-12T14:39:40.980Z,65.30
2017-12-12T14:42:08.483Z,65.30
2017-12-12T14:44:35.998Z,65.80
2017-12-12T14:47:04.427Z,65.90
2017-12-12T14:49:31.960Z,65.40
2017-12-12T14:52:00.232Z,66.30
2017-12-12T14:54:27.759Z,66.20
2017-12-12T14:56:55.256Z,66.40
2017-12-12T14:59:22.771Z,67.30
2017-12-12T15:01:50.258Z,68.30
2017-12-12T15:04:17.778Z,69.20
2017-12-12T15:06:45.276Z,70.00
2017-12-12T15:09:12.792Z,70.70
2017-12-12T15:11:40.287Z,71.20
2017-12-12T15:14:07.789Z,71.70
2017-12-12T15:16:35.302Z,72.40
2017-12-12T15:19:02.803Z,72.80
2017-12-12T15:21:30.335Z,73.10
2017-12-12T15:23:57.831Z,73.60
2017-12-12T15:26:25.412Z,74.10
2017-12-12T15:28:52.910Z,74.60
2017-12-12T15:31:21.194Z,76.40
2017-12-12T15:33:48.687Z,76.40
2017-12-12T15:36:16.203Z,77.50
2017-12-12T15:38:44.463Z,79.30
2017-12-12T15:41:11.956Z,79.30
2017-12-12T15:43:39.474Z,80.30
2017-12-12T15:46:06.967Z,80.10
2017-12-12T15:48:34.492Z,79.30
2017-12-12T15:51:01.992Z,78.20
2017-12-12T15:53:29.504Z,78.10
2017-12-12T15:55:56.990Z,77.90
2017-12-12T15:58:24.499Z,78.30
2017-12-12T16:00:51.985Z,78.20
2017-12-12T16:03:19.475Z,78.30
2017-12-12T16:05:46.990Z,78.70
2017-12-12T16:08:14.482Z,78.90
2017-12-12T16:10:41.992Z,79.40
2017-12-12T16:13:09.478Z,79.50
2017-12-12T16:15:36.986Z,79.60
2017-12-12T16:18:04.495Z,79.50
2017-12-12T16:20:32.014Z,79.50
2017-12-12T16:22:59.505Z,79.00
2017-12-12T16:25:27.015Z,78.50
2017-12-12T16:27:54.511Z,77.90
2017-12-12T16:30:22.032Z,77.40
2017-12-12T16:32:49.533Z,77.40
2017-12-12T16:35:17.031Z,77.30
2017-12-12T16:37:44.931Z,77.20
2017-12-12T16:40:12.428Z,76.80
2017-12-12T16:42:39.958Z,77.20
2017-12-12T16:45:07.453Z,78.40
2017-12-12T16:47:35.734Z,76.30
2017-12-12T16:50:03.232Z,76.30
2017-12-12T16:52:30.754Z,75.60
2017-12-12T16:54:59.018Z,75.60
2017-12-12T16:57:26.534Z,75.60
2017-12-12T16:59:54.059Z,76.30
2017-12-12T17:02:22.322Z,75.20
2017-12-12T17:04:49.833Z,75.90
2017-12-12T17:07:17.330Z,75.60
2017-12-12T17:09:44.853Z,75.80
2017-12-12T17:12:12.347Z,76.20
2017-12-12T17:14:39.867Z,76.70
2017-12-12T17:17:07.362Z,78.10
2017-12-12T17:19:34.878Z,77.60
2017-12-12T17:22:02.375Z,77.40
2017-12-12T17:24:29.866Z,77.60
2017-12-12T17:26:57.380Z,77.30
2017-12-12T17:29:24.883Z,77.60
2017-12-12T17:31:52.417Z,77.70
2017-12-12T17:34:19.928Z,77.70
2017-12-12T17:36:47.446Z,77.50
2017-12-12T17:39:14.938Z,77.70
2017-12-12T17:41:42.455Z,78.10
2017-12-12T17:44:10.716Z,78.10
2017-12-12T17:46:38.232Z,78.00
2017-12-12T17:49:06.543Z,78.20
2017-12-12T17:51:34.030Z,78.30
2017-12-12T17:54:02.307Z,77.80
2017-12-12T17:56:30.563Z,77.60
2017-12-12T17:58:58.071Z,77.60
2017-12-12T18:01:25.562Z,77.30
2017-12-12T18:03:53.072Z,77.30
2017-12-12T18:06:20.567Z,77.20
2017-12-12T18:08:48.091Z,77.40
2017-12-12T18:11:15.583Z,77.10
2017-12-12T18:13:43.102Z,77.20
2017-12-12T18:16:10.595Z,77.90
2017-12-12T18:18:38.083Z,77.60
2017-12-12T18:21:05.591Z,77.50
2017-12-12T18:23:33.082Z,78.50
2017-12-12T18:26:00.595Z,77.50
2017-12-12T18:28:28.098Z,77.30
2017-12-12T18:30:55.619Z,77.50
2017-12-12T18:33:26.103Z,77.60
2017-12-12T18:35:53.628Z,77.80
2017-12-12T18:38:21.124Z,78.00
2017-12-12T18:40:48.644Z,79.00
2017-12-12T18:43:16.134Z,78.20
2017-12-12T18:45:43.635Z,78.20
2017-12-12T18:48:11.155Z,78.70
2017-12-12T18:50:38.647Z,79.20
2017-12-12T18:53:06.170Z,79.50
2017-12-12T18:55:33.660Z,79.90
2017-12-12T18:58:01.200Z,80.20
2017-12-12T19:00:29.473Z,81.00
2017-12-12T19:02:56.987Z,81.00
2017-12-12T19:05:24.474Z,81.40
2017-12-12T19:07:51.988Z,81.70
2017-12-12T19:10:19.482Z,82.10
2017-12-12T19:12:48.519Z,82.70
2017-12-12T19:15:16.778Z,83.00
2017-12-12T19:17:45.034Z,83.60
2017-12-12T19:20:12.546Z,83.00
2017-12-12T19:22:40.042Z,83.10
2017-12-12T19:25:07.550Z,83.20
2017-12-12T19:27:35.814Z,83.30
2017-12-12T19:30:03.325Z,83.30
2017-12-12T19:32:30.819Z,83.30
2017-12-12T19:34:59.103Z,83.70
2017-12-12T19:37:27.358Z,83.00
2017-12-12T19:39:54.868Z,83.00
2017-12-12T19:42:22.358Z,82.90
2017-12-12T19:44:49.851Z,82.90
2017-12-12T19:47:18.134Z,82.30
2017-12-12T19:49:46.404Z,82.40
2017-12-12T19:52:14.682Z,82.30
2017-12-12T19:54:42.943Z,82.10
2017-12-12T19:57:10.451Z,82.00
2017-12-12T19:59:37.947Z,82.00
2017-12-12T20:02:05.463Z,81.80
2017-12-12T20:04:32.959Z,81.70
2017-12-12T20:07:00.480Z,81.70
2017-12-12T20:09:27.979Z,81.70
2017-12-12T20:11:55.486Z,81.90
2017-12-12T20:14:22.976Z,81.60
2017-12-12T20:16:50.468Z,81.60
2017-12-12T20:19:17.974Z,81.60
2017-12-12T20:21:45.471Z,81.50
2017-12-12T20:24:12.989Z,81.40
2017-12-12T20:26:40.479Z,81.60
2017-12-12T20:29:07.996Z,81.60
2017-12-12T20:31:35.495Z,81.70
2017-12-12T20:34:03.019Z,81.70
2017-12-12T20:36:30.511Z,81.90
2017-12-12T20:38:58.030Z,82.10
2017-12-12T20:41:25.522Z,82.40
2017-12-12T20:43:53.019Z,82.50
2017-12-12T20:46:21.303Z,82.90
2017-12-12T20:48:48.805Z,82.90
2017-12-12T20:51:16.322Z,83.10
2017-12-12T20:53:44.582Z,83.40
2017-12-12T20:56:12.103Z,83.40
2017-12-12T20:58:39.591Z,83.70
2017-12-12T21:01:07.103Z,84.00
2017-12-12T21:03:34.594Z,84.10
2017-12-12T21:06:02.151Z,84.30
2017-12-12T21:08:29.622Z,84.60
2017-12-12T21:10:57.114Z,84.80
2017-12-12T21:13:25.399Z,85.30
2017-12-12T21:15:52.889Z,85.30
2017-12-12T21:18:20.423Z,85.50
2017-12-12T21:20:47.922Z,85.80
2017-12-12T21:23:15.434Z,86.00
2017-12-12T21:25:42.942Z,86.30
2017-12-12T21:28:10.459Z,86.60
2017-12-12T21:30:37.956Z,86.70
2017-12-12T21:33:05.526Z,86.90
2017-12-12T21:35:32.992Z,87.20
2017-12-12T21:38:00.487Z,87.20
2017-12-12T21:40:27.999Z,87.20
2017-12-12T21:42:55.498Z,87.40
2017-12-12T21:45:23.015Z,87.60
2017-12-12T21:47:50.504Z,87.50
2017-12-12T21:50:18.778Z,87.70
2017-12-12T21:52:46.271Z,87.60
2017-12-12T21:55:13.791Z,87.60
2017-12-12T21:57:42.055Z,88.00
2017-12-12T22:00:10.343Z,88.50
2017-12-12T22:02:38.598Z,87.70
2017-12-12T22:05:06.094Z,87.70
2017-12-12T22:07:33.607Z,87.50
2017-12-12T22:10:01.100Z,87.30
2017-12-12T22:12:29.378Z,87.30
2017-12-12T22:14:57.642Z,87.30
2017-12-12T22:17:25.173Z,87.20
2017-12-12T22:19:52.667Z,87.20
2017-12-12T22:22:20.185Z,87.10
2017-12-12T22:24:47.680Z,87.10
2017-12-12T22:27:15.190Z,87.20
2017-12-12T22:29:42.686Z,87.10
2017-12-12T22:32:10.175Z,87.20
2017-12-12T22:34:37.708Z,87.10
2017-12-12T22:37:06.007Z,87.30
2017-12-12T22:39:33.535Z,87.30
2017-12-12T22:42:01.038Z,87.50
2017-12-12T22:44:28.933Z,87.90
2017-12-12T22:46:56.446Z,88.10
2017-12-12T22:49:23.966Z,88.30
2017-12-12T22:51:51.458Z,88.60
2017-12-12T22:54:19.740Z,89.00
2017-12-12T22:56:47.242Z,89.00
2017-12-12T22:59:14.755Z,89.20
2017-12-12T23:01:42.247Z,89.30
2017-12-12T23:04:09.758Z,89.50
2017-12-12T23:06:37.251Z,89.70
2017-12-12T23:09:04.771Z,89.90
2017-12-12T23:11:32.258Z,90.00
2017-12-12T23:13:59.750Z,90.10
2017-12-12T23:16:27.263Z,90.20
2017-12-12T23:18:54.748Z,91.10
2017-12-12T23:21:22.258Z,90.90
2017-12-12T23:23:50.509Z,90.70
2017-12-12T23:26:18.024Z,90.90
2017-12-12T23:28:45.519Z,90.50
2017-12-12T23:31:13.036Z,90.50
2017-12-12T23:33:40.523Z,90.50
2017-12-12T23:36:08.801Z,90.70
2017-12-12T23:38:36.291Z,90.70
2017-12-12T23:41:03.791Z,90.80
2017-12-12T23:43:31.305Z,90.80
2017-12-12T23:45:58.794Z,90.90
2017-12-12T23:48:26.308Z,91.00
2017-12-12T23:50:53.820Z,91.00
2017-12-12T23:53:21.330Z,91.20
2017-12-12T23:55:48.827Z,91.20
2017-12-12T23:58:17.099Z,91.30
